Ankeny, Iowa
Current Conditions -  °F | °C
As of 2:35 PM on Monday 22 Dec 2014 (Local Time) from KIKV Reporting Station
Haze Haze  
Wind Chill:   Ceiling: 600
Heat Index:   Visibility: 4mi
Dew Point:   Wind: 9mph
Humidity: 100%   Direction: 120°ESE
Pressure: 29.48"   Gusts: NA
Location:  41.73°N, 93.6°W
Report Text: KIKV 222035Z AUTO 12008KT 4SM BR OVC006 04/04 A2948 RMK AO2
Loading
Personal Weather Stations






























Interactive Weather Map New forecast layout! Learn more

10-Day Weather Forecast

Advertisements
Track Severe Weather on mobile